Terminal Aerodrome Forecast
Issued by NWS Paducah, KY

Home | Current Version | Previous Version | Text Only | Print | Product List | Glossary On
Versions: 1 2 3 4 5 6 7 8 9 10 11 12 13
695
FTUS43 KPAH 231735 AAB
TAFPAH
TAF AMD
KPAH 231735Z 2318/2418 09005KT P6SM -SHRA SCT012 OVC080
      TEMPO 2318/2319 6SM BR BKN012
     FM231900 33006KT P6SM VCSH BKN022
     FM240000 33008KT P6SM BKN060
     FM240300 33005KT P6SM BKN200=

USA.gov is the U.S. government's official web portal to all federal, state and local government web resources and services.